ADDS METAR Data INFO
IDs: Format: Raw Decoded Include TAF

Data at: 1333 UTC 25 Sep 2017

KPIL 251253Z AUTO 14007KT 6SM BR CLR 27/25 A2979 RMK AO2 SLP088 T02720250
KPIL 251153Z AUTO 14006KT 8SM CLR 27/24 A2978 RMK AO2 SLP085 T02670244 10283 20267 55002
KPIL 251053Z AUTO 15005KT 8SM CLR 27/24 A2978 RMK AO2 SLP084 T02720244
KPIL 250953Z AUTO 13007KT 8SM CLR 27/25 A2978 RMK AO2 SLP084 T02720250
KPIL 250853Z AUTO 14007KT 8SM CLR 27/24 A2979 RMK AO2 SLP087 T02720244 58008
KPIL 250753Z AUTO 15008KT 9SM CLR 28/24 A2980 RMK AO2 SLP090 T02780244
KPIL 250731Z AUTO 15007KT 9SM FEW020 28/24 A2980 RMK AO2 T02780244
KPIL 250705Z AUTO 14009KT 9SM BKN021 28/25 A2981 RMK AO2 T02830250
KPIL 250653Z AUTO 13008KT 9SM SCT021 28/25 A2981 RMK AO2 SLP093 T02830250
KPIL 250553Z AUTO 13010KT 9SM CLR 28/25 A2981 RMK AO2 SLP095 T02830250 10294 20283 403440261 58002
KPIL 250453Z AUTO 13011KT 10SM FEW021 28/25 A2982 RMK AO2 SLP098 T02830250
KPIL 250401Z AUTO 14011KT 10SM FEW021 SCT100 28/24 A2982 RMK AO2 T02830244
KPIL 250353Z AUTO 13014KT 10SM SCT021 BKN029 BKN080 29/24 A2982 RMK AO2 SLP098 T02890244
KPIL 250350Z AUTO 13014KT 10SM SCT021 BKN027 BKN033 29/24 A2982 RMK AO2
KPIL 250342Z AUTO 12012KT 10SM SCT021 SCT026 29/25 A2982 RMK AO2 T02890250
KPIL 250316Z AUTO 12011KT 10SM BKN020 29/25 A2981 RMK AO2 T02890250
KPIL 250253Z AUTO 11013KT 10SM SCT020 29/24 A2980 RMK AO2 SLP092 T02940244 52013
KPIL 250153Z AUTO 12011KT 10SM CLR 29/24 A2980 RMK AO2 SLP089 T02890239
KPIL 250053Z AUTO 11013KT 10SM SCT020 29/24 A2978 RMK AO2 SLP082 T02890244
KPIL 242353Z AUTO 11013KT 10SM FEW019 29/24 A2977 RMK AO2 SLP079 T02940244 10344 20294 53005
KPIL 242253Z AUTO 11015KT 10SM CLR 31/25 A2976 RMK AO2 SLP076 T03060250
KPIL 242153Z AUTO 11014G21KT 10SM CLR 32/25 A2976 RMK AO2 SLP076 T03170250
KPIL 242053Z AUTO 10016KT 10SM CLR 33/25 A2975 RMK AO2 SLP075 T03280250 58017
KPIL 241953Z AUTO 10016G22KT 10SM CLR 33/25 A2977 RMK AO2 SLP082 T03280250
KPIL 241853Z AUTO 11015KT 10SM FEW030 33/24 A2978 RMK AO2 SLP085 T03330244
KPIL 241753Z AUTO 14013G22KT 10SM FEW032 34/24 A2980 RMK AO2 SLP092 T03390239 10339 20261 58007
KPIL 241653Z AUTO 12015G22KT 10SM FEW028 SCT036 SCT050 32/24 A2982 RMK AO2 SLP097 T03170244
KPIL 241553Z AUTO 13012KT 10SM FEW025 32/24 A2983 RMK AO2 SLP101 T03170239
KPIL 241453Z AUTO 12011KT 10SM FEW023 30/24 A2983 RMK AO2 SLP099 T03000244 51009
KPIL 241441Z AUTO 14013KT 10SM SCT021 SCT034 SCT049 29/24 A2982 RMK AO2 T02940239
KPIL 241432Z AUTO 14013KT 10SM SCT020 BKN026 BKN034 30/25 A2982 RMK AO2 T03000250
KPIL 241353Z AUTO 14008KT 10SM CLR 29/25 A2982 RMK AO2 SLP097 T02890250
KPIL 241253Z AUTO 12003KT 8SM CLR 26/25 A2981 RMK AO2 SLP093 T02610250
KPIL 241153Z AUTO 15004KT 9SM OVC090 27/25 A2980 RMK AO2 RAE19 SLP090 P0000 60002 70002 T02670250 10278 20261 55000
KPIL 241053Z AUTO 18006KT 10SM -RA FEW024 BKN055 OVC070 26/24 A2980 RMK AO2 RAB36 SLP089 P0002 T02610239
KPIL 240953Z AUTO 14006KT 10SM CLR 26/24 A2980 RMK AO2 SLP089 T02610239
KPIL 240853Z AUTO 15005KT 10SM CLR 26/24 A2980 RMK AO2 SLP090 T02610239 56008
KPIL 240753Z AUTO 14006KT 10SM CLR 27/24 A2981 RMK AO2 SLP092 T02670239
KPIL 240653Z AUTO 14005KT 10SM CLR 27/23 A2982 RMK AO2 SLP096 T02720233
KPIL 240553Z AUTO 14010KT 10SM CLR 28/23 A2982 RMK AO2 SLP099 T02780233 10294 20278 403330250 50004